Glade Valley, NC

6:13 PM EDT on October 25, 2014 (GMT -0400)
High Country Lights | Change Station
CLOSE
Current Station
Personal Weather Station
Location: Ennice, NC
Elevation: 2871 ft
Nearby Weather Stations

Elev 2871 ft 36.51 °N, 80.95 °W | Updated 3 minutes ago

Overcast
Overcast
60.6 °F
Feels Like 60.6 °F
N
4.0
Wind Variable Wind from WNW
Gusts 4.0 mph

Today
High -- | Low -- °F
--% Chance of Precip.
Yesterday
High -- | Low -- °F
Precip. -- in
7:40 AM 6:35 PM
Waxing Crescent, 4% visible
Pressure 29.98 in
Visibility 10.0 miles
Clouds Mostly Cloudy 7000 ft
Dew Point 46 °F
Humidity 58%
Rainfall 0.00 in
Snow Depth Not available.
UV 0 out of 12
Pollen 2.20 out of 12
Air Quality Not available.
Flu Activity Local Activity
METAR KUKF 252155Z AUTO 23003KT 10SM BKN070 21/04 A2998 RMK AO2

More Conditions Fewer Conditions

Pressure 29.98 in
Visibility 10.0 miles
Clouds Mostly Cloudy 7000 ft
Dew Point 46 °F
Humidity 58%
Rainfall 0.00 in
Snow Depth Not available.
UV 0 out of 12
Pollen 2.20 out of 12
Air Quality Not available.
Flu Activity Local Activity
METAR KUKF 252155Z AUTO 23003KT 10SM BKN070 21/04 A2998 RMK AO2

More Conditions Fewer Conditions

10-Day Weather Forecast

Almanac

Astronomy

Oct. 25, 2014 Rise Set
Actual Time 7:40 AM EDT 6:35 PM EDT
Civil Twilight 7:14 AM EDT 7:01 PM EDT
Nautical Twilight 6:43 AM EDT 7:31 PM EDT
Astronomical Twilight 6:13 AM EDT 8:01 PM EDT
Moon 9:15 AM EDT 7:59 PM EDT
Length of Visible Light 11h 47m
Length of Day
10h 54m
Tomorrow will be 2m 7s shorter.
Waxing Crescent, 4% of the Moon is Illuminated
Today
Waxing Crescent
Oct 30
First Quarter
Nov 6
Full
Nov 14
Last Quarter
Nov 22
New

Today's Extremes

State Highs State Lows

Community

WunderPhotos

Upload Photos

1,765,015 photos uploaded!

Nearby

Snow Depth

Station Depth Elevation
No new snow has been reported.

Earthquake Activity

City Distance Mag. Time & Date
No recent earthquake activity has been reported nearby.
Minimum magnitude displayed is 2.5.

Coastal Water Temperatures

Place Temperature
No Stations Reporting

Nearby Weather Stations